sensor_id;sensor_type;location;lat;lon;timestamp;P1;durP1;ratioP1;P2;durP2;ratioP2
65757;SDS011;52495;52.208;5.158;2022-11-15T00:00:09;34.92;;;20.92;;
65757;SDS011;52495;52.208;5.158;2022-11-15T00:02:55;39.30;;;21.30;;
65757;SDS011;52495;52.208;5.158;2022-11-15T00:05:40;36.75;;;21.52;;
65757;SDS011;52495;52.208;5.158;2022-11-15T00:08:28;35.35;;;20.33;;
65757;SDS011;52495;52.208;5.158;2022-11-15T00:11:15;38.47;;;21.52;;
65757;SDS011;52495;52.208;5.158;2022-11-15T00:14:00;36.88;;;21.73;;
65757;SDS011;52495;52.208;5.158;2022-11-15T00:16:46;41.95;;;23.52;;
65757;SDS011;52495;52.208;5.158;2022-11-15T00:19:32;48.85;;;24.00;;
65757;SDS011;52495;52.208;5.158;2022-11-15T00:22:17;53.13;;;25.75;;
65757;SDS011;52495;52.208;5.158;2022-11-15T00:25:03;45.40;;;23.27;;
65757;SDS011;52495;52.208;5.158;2022-11-15T00:27:49;49.55;;;24.08;;
65757;SDS011;52495;52.208;5.158;2022-11-15T00:30:36;39.35;;;18.30;;
65757;SDS011;52495;52.208;5.158;2022-11-15T00:33:21;44.65;;;23.23;;
65757;SDS011;52495;52.208;5.158;2022-11-15T00:36:07;44.55;;;22.38;;
65757;SDS011;52495;52.208;5.158;2022-11-15T00:38:54;51.90;;;23.90;;
65757;SDS011;52495;52.208;5.158;2022-11-15T00:41:39;48.13;;;23.50;;
65757;SDS011;52495;52.208;5.158;2022-11-15T00:44:26;52.47;;;23.40;;
65757;SDS011;52495;52.208;5.158;2022-11-15T00:47:11;50.83;;;21.90;;
65757;SDS011;52495;52.208;5.158;2022-11-15T00:49:56;47.78;;;22.65;;
65757;SDS011;52495;52.208;5.158;2022-11-15T00:52:42;57.10;;;23.77;;
65757;SDS011;52495;52.208;5.158;2022-11-15T00:55:28;52.50;;;24.02;;
65757;SDS011;52495;52.208;5.158;2022-11-15T00:58:13;50.40;;;24.77;;
65757;SDS011;52495;52.208;5.158;2022-11-15T01:01:06;54.38;;;24.17;;
65757;SDS011;52495;52.208;5.158;2022-11-15T01:03:52;54.67;;;24.60;;
65757;SDS011;52495;52.208;5.158;2022-11-15T01:06:37;55.83;;;23.23;;
65757;SDS011;52495;52.208;5.158;2022-11-15T01:09:22;49.17;;;24.65;;
65757;SDS011;52495;52.208;5.158;2022-11-15T01:12:08;55.83;;;25.77;;
65757;SDS011;52495;52.208;5.158;2022-11-15T01:14:53;39.50;;;20.10;;
65757;SDS011;52495;52.208;5.158;2022-11-15T01:17:40;53.33;;;25.33;;
65757;SDS011;52495;52.208;5.158;2022-11-15T01:20:25;54.10;;;21.50;;
65757;SDS011;52495;52.208;5.158;2022-11-15T01:23:10;64.63;;;25.48;;
65757;SDS011;52495;52.208;5.158;2022-11-15T01:25:58;51.75;;;23.25;;
65757;SDS011;52495;52.208;5.158;2022-11-15T01:28:43;58.13;;;23.35;;
65757;SDS011;52495;52.208;5.158;2022-11-15T01:31:29;62.03;;;25.50;;
65757;SDS011;52495;52.208;5.158;2022-11-15T01:34:15;53.42;;;25.15;;
65757;SDS011;52495;52.208;5.158;2022-11-15T01:37:01;58.40;;;25.15;;
65757;SDS011;52495;52.208;5.158;2022-11-15T01:39:46;50.78;;;23.20;;
65757;SDS011;52495;52.208;5.158;2022-11-15T01:42:32;59.90;;;25.55;;
65757;SDS011;52495;52.208;5.158;2022-11-15T01:45:17;55.63;;;27.70;;
65757;SDS011;52495;52.208;5.158;2022-11-15T01:48:02;61.00;;;26.08;;
65757;SDS011;52495;52.208;5.158;2022-11-15T01:50:49;57.35;;;25.75;;
65757;SDS011;52495;52.208;5.158;2022-11-15T01:53:35;54.40;;;25.92;;
65757;SDS011;52495;52.208;5.158;2022-11-15T01:56:24;50.90;;;25.20;;
65757;SDS011;52495;52.208;5.158;2022-11-15T01:59:12;56.20;;;25.33;;
65757;SDS011;52495;52.208;5.158;2022-11-15T02:01:57;58.53;;;26.83;;
65757;SDS011;52495;52.208;5.158;2022-11-15T02:04:43;62.17;;;26.25;;
65757;SDS011;52495;52.208;5.158;2022-11-15T02:07:34;53.90;;;24.13;;
65757;SDS011;52495;52.208;5.158;2022-11-15T02:10:20;64.25;;;28.58;;
65757;SDS011;52495;52.208;5.158;2022-11-15T02:13:07;60.58;;;27.45;;
65757;SDS011;52495;52.208;5.158;2022-11-15T02:15:56;54.10;;;24.85;;
65757;SDS011;52495;52.208;5.158;2022-11-15T02:18:50;63.20;;;28.05;;
65757;SDS011;52495;52.208;5.158;2022-11-15T02:21:41;33.38;;;16.35;;
65757;SDS011;52495;52.208;5.158;2022-11-15T02:24:38;60.40;;;27.45;;
65757;SDS011;52495;52.208;5.158;2022-11-15T02:27:53;54.97;;;28.53;;
65757;SDS011;52495;52.208;5.158;2022-11-15T02:30:52;58.70;;;27.85;;
65757;SDS011;52495;52.208;5.158;2022-11-15T02:33:47;56.33;;;29.17;;
65757;SDS011;52495;52.208;5.158;2022-11-15T02:36:40;67.72;;;29.13;;
65757;SDS011;52495;52.208;5.158;2022-11-15T02:39:30;62.35;;;28.77;;
65757;SDS011;52495;52.208;5.158;2022-11-15T02:42:20;51.63;;;23.27;;
65757;SDS011;52495;52.208;5.158;2022-11-15T02:45:28;61.03;;;28.25;;
65757;SDS011;52495;52.208;5.158;2022-11-15T02:48:19;65.38;;;27.95;;
65757;SDS011;52495;52.208;5.158;2022-11-15T02:51:07;56.88;;;28.67;;
65757;SDS011;52495;52.208;5.158;2022-11-15T02:53:53;62.63;;;28.08;;
65757;SDS011;52495;52.208;5.158;2022-11-15T02:56:38;68.15;;;29.88;;
65757;SDS011;52495;52.208;5.158;2022-11-15T02:59:32;78.35;;;32.75;;
65757;SDS011;52495;52.208;5.158;2022-11-15T03:02:49;67.40;;;29.48;;
65757;SDS011;52495;52.208;5.158;2022-11-15T03:05:51;53.67;;;23.00;;
65757;SDS011;52495;52.208;5.158;2022-11-15T03:08:44;64.20;;;29.85;;
65757;SDS011;52495;52.208;5.158;2022-11-15T03:11:41;72.80;;;29.95;;
65757;SDS011;52495;52.208;5.158;2022-11-15T03:14:32;71.80;;;30.50;;
65757;SDS011;52495;52.208;5.158;2022-11-15T03:17:23;62.10;;;31.25;;
65757;SDS011;52495;52.208;5.158;2022-11-15T03:20:11;59.70;;;26.17;;
65757;SDS011;52495;52.208;5.158;2022-11-15T03:23:01;63.30;;;31.67;;
65757;SDS011;52495;52.208;5.158;2022-11-15T03:25:50;68.70;;;30.02;;
65757;SDS011;52495;52.208;5.158;2022-11-15T03:28:36;65.13;;;30.73;;
65757;SDS011;52495;52.208;5.158;2022-11-15T03:31:26;69.57;;;30.30;;
65757;SDS011;52495;52.208;5.158;2022-11-15T03:34:33;68.57;;;30.20;;
65757;SDS011;52495;52.208;5.158;2022-11-15T03:37:24;64.72;;;28.60;;
65757;SDS011;52495;52.208;5.158;2022-11-15T03:40:15;71.10;;;32.70;;
65757;SDS011;52495;52.208;5.158;2022-11-15T03:43:05;67.95;;;30.08;;
65757;SDS011;52495;52.208;5.158;2022-11-15T03:46:00;53.95;;;26.17;;
65757;SDS011;52495;52.208;5.158;2022-11-15T03:48:49;64.75;;;30.15;;
65757;SDS011;52495;52.208;5.158;2022-11-15T03:51:37;58.42;;;29.17;;
65757;SDS011;52495;52.208;5.158;2022-11-15T03:54:23;68.32;;;32.17;;
65757;SDS011;52495;52.208;5.158;2022-11-15T03:57:10;67.70;;;30.77;;
65757;SDS011;52495;52.208;5.158;2022-11-15T03:59:56;69.40;;;31.35;;
65757;SDS011;52495;52.208;5.158;2022-11-15T04:02:41;63.45;;;28.75;;
65757;SDS011;52495;52.208;5.158;2022-11-15T04:05:26;65.80;;;30.40;;
65757;SDS011;52495;52.208;5.158;2022-11-15T04:08:11;53.08;;;28.58;;
65757;SDS011;52495;52.208;5.158;2022-11-15T04:10:57;58.20;;;30.95;;
65757;SDS011;52495;52.208;5.158;2022-11-15T04:13:43;66.63;;;32.63;;
65757;SDS011;52495;52.208;5.158;2022-11-15T04:16:28;51.10;;;27.83;;
65757;SDS011;52495;52.208;5.158;2022-11-15T04:19:14;54.58;;;28.48;;
65757;SDS011;52495;52.208;5.158;2022-11-15T04:22:17;57.03;;;28.42;;
65757;SDS011;52495;52.208;5.158;2022-11-15T04:25:20;55.17;;;28.67;;
65757;SDS011;52495;52.208;5.158;2022-11-15T04:28:05;58.65;;;29.23;;
65757;SDS011;52495;52.208;5.158;2022-11-15T04:30:52;51.78;;;28.20;;
65757;SDS011;52495;52.208;5.158;2022-11-15T04:33:37;51.33;;;27.83;;
65757;SDS011;52495;52.208;5.158;2022-11-15T04:36:22;53.22;;;29.88;;
65757;SDS011;52495;52.208;5.158;2022-11-15T04:39:26;57.22;;;30.98;;
65757;SDS011;52495;52.208;5.158;2022-11-15T04:42:11;35.00;;;20.90;;
65757;SDS011;52495;52.208;5.158;2022-11-15T04:44:56;51.40;;;28.13;;
65757;SDS011;52495;52.208;5.158;2022-11-15T04:47:44;42.88;;;23.88;;
65757;SDS011;52495;52.208;5.158;2022-11-15T04:50:29;47.47;;;27.50;;
65757;SDS011;52495;52.208;5.158;2022-11-15T04:53:15;47.20;;;27.15;;
65757;SDS011;52495;52.208;5.158;2022-11-15T04:56:00;45.13;;;25.65;;
65757;SDS011;52495;52.208;5.158;2022-11-15T04:58:46;48.55;;;26.30;;
65757;SDS011;52495;52.208;5.158;2022-11-15T05:01:33;47.55;;;27.17;;
65757;SDS011;52495;52.208;5.158;2022-11-15T05:04:20;44.22;;;26.58;;
65757;SDS011;52495;52.208;5.158;2022-11-15T05:07:04;49.17;;;28.15;;
65757;SDS011;52495;52.208;5.158;2022-11-15T05:09:49;45.70;;;26.30;;
65757;SDS011;52495;52.208;5.158;2022-11-15T05:12:35;37.78;;;23.20;;
65757;SDS011;52495;52.208;5.158;2022-11-15T05:15:20;40.58;;;24.80;;
65757;SDS011;52495;52.208;5.158;2022-11-15T05:18:06;47.72;;;26.38;;
65757;SDS011;52495;52.208;5.158;2022-11-15T05:20:53;44.90;;;25.40;;
65757;SDS011;52495;52.208;5.158;2022-11-15T05:23:38;46.00;;;25.40;;
65757;SDS011;52495;52.208;5.158;2022-11-15T05:26:24;46.40;;;26.38;;
65757;SDS011;52495;52.208;5.158;2022-11-15T05:29:10;61.42;;;26.13;;
65757;SDS011;52495;52.208;5.158;2022-11-15T05:31:55;61.15;;;26.95;;
65757;SDS011;52495;52.208;5.158;2022-11-15T05:34:41;44.60;;;22.00;;
65757;SDS011;52495;52.208;5.158;2022-11-15T05:37:28;42.22;;;24.77;;
65757;SDS011;52495;52.208;5.158;2022-11-15T05:40:13;45.78;;;23.58;;
65757;SDS011;52495;52.208;5.158;2022-11-15T05:42:58;40.72;;;23.92;;
65757;SDS011;52495;52.208;5.158;2022-11-15T05:45:47;40.55;;;23.60;;
65757;SDS011;52495;52.208;5.158;2022-11-15T05:48:32;40.65;;;24.67;;
65757;SDS011;52495;52.208;5.158;2022-11-15T05:51:20;73.18;;;25.50;;
65757;SDS011;52495;52.208;5.158;2022-11-15T05:54:08;42.63;;;25.00;;
65757;SDS011;52495;52.208;5.158;2022-11-15T05:56:55;39.70;;;24.02;;
65757;SDS011;52495;52.208;5.158;2022-11-15T05:59:41;90.85;;;26.83;;
65757;SDS011;52495;52.208;5.158;2022-11-15T06:02:28;59.60;;;25.08;;
65757;SDS011;52495;52.208;5.158;2022-11-15T06:05:13;51.95;;;24.67;;
65757;SDS011;52495;52.208;5.158;2022-11-15T06:07:58;35.08;;;21.90;;
65757;SDS011;52495;52.208;5.158;2022-11-15T06:10:45;38.17;;;23.73;;
65757;SDS011;52495;52.208;5.158;2022-11-15T06:13:30;43.58;;;24.35;;
65757;SDS011;52495;52.208;5.158;2022-11-15T06:16:16;38.28;;;23.13;;
65757;SDS011;52495;52.208;5.158;2022-11-15T06:19:01;38.08;;;24.23;;
65757;SDS011;52495;52.208;5.158;2022-11-15T06:21:46;39.40;;;23.85;;
65757;SDS011;52495;52.208;5.158;2022-11-15T06:24:32;36.45;;;23.67;;
65757;SDS011;52495;52.208;5.158;2022-11-15T06:27:18;43.75;;;25.92;;
65757;SDS011;52495;52.208;5.158;2022-11-15T06:30:04;39.38;;;24.10;;
65757;SDS011;52495;52.208;5.158;2022-11-15T06:32:50;42.15;;;24.60;;
65757;SDS011;52495;52.208;5.158;2022-11-15T06:35:35;38.72;;;25.05;;
65757;SDS011;52495;52.208;5.158;2022-11-15T06:38:21;40.58;;;24.45;;
65757;SDS011;52495;52.208;5.158;2022-11-15T06:41:07;37.85;;;22.85;;
65757;SDS011;52495;52.208;5.158;2022-11-15T06:43:56;35.00;;;23.30;;
65757;SDS011;52495;52.208;5.158;2022-11-15T06:46:41;42.05;;;23.83;;
65757;SDS011;52495;52.208;5.158;2022-11-15T06:49:26;35.95;;;24.23;;
65757;SDS011;52495;52.208;5.158;2022-11-15T06:52:12;39.80;;;23.33;;
65757;SDS011;52495;52.208;5.158;2022-11-15T06:54:57;37.63;;;23.23;;
65757;SDS011;52495;52.208;5.158;2022-11-15T06:57:46;42.92;;;23.52;;
65757;SDS011;52495;52.208;5.158;2022-11-15T07:00:34;38.38;;;24.00;;
65757;SDS011;52495;52.208;5.158;2022-11-15T07:03:19;38.97;;;23.42;;
65757;SDS011;52495;52.208;5.158;2022-11-15T07:06:05;36.95;;;22.17;;
65757;SDS011;52495;52.208;5.158;2022-11-15T07:08:50;31.02;;;20.27;;
65757;SDS011;52495;52.208;5.158;2022-11-15T07:11:35;42.05;;;22.70;;
65757;SDS011;52495;52.208;5.158;2022-11-15T07:14:22;36.88;;;22.35;;
65757;SDS011;52495;52.208;5.158;2022-11-15T07:17:09;36.58;;;21.73;;
65757;SDS011;52495;52.208;5.158;2022-11-15T07:19:54;34.47;;;22.05;;
65757;SDS011;52495;52.208;5.158;2022-11-15T07:22:40;34.47;;;21.88;;
65757;SDS011;52495;52.208;5.158;2022-11-15T07:25:25;35.28;;;21.73;;
65757;SDS011;52495;52.208;5.158;2022-11-15T07:28:10;32.25;;;20.58;;
65757;SDS011;52495;52.208;5.158;2022-11-15T07:30:56;34.58;;;21.70;;
65757;SDS011;52495;52.208;5.158;2022-11-15T07:33:42;33.85;;;21.42;;
65757;SDS011;52495;52.208;5.158;2022-11-15T07:36:27;34.13;;;20.92;;
65757;SDS011;52495;52.208;5.158;2022-11-15T07:39:13;35.28;;;21.27;;
65757;SDS011;52495;52.208;5.158;2022-11-15T07:41:58;33.67;;;21.20;;
65757;SDS011;52495;52.208;5.158;2022-11-15T07:45:02;18.67;;;14.40;;
65757;SDS011;52495;52.208;5.158;2022-11-15T07:47:47;31.08;;;18.90;;
65757;SDS011;52495;52.208;5.158;2022-11-15T07:50:34;36.83;;;20.30;;
65757;SDS011;52495;52.208;5.158;2022-11-15T07:53:20;29.30;;;19.60;;
65757;SDS011;52495;52.208;5.158;2022-11-15T07:56:05;35.30;;;18.88;;
65757;SDS011;52495;52.208;5.158;2022-11-15T07:58:51;29.65;;;18.38;;
65757;SDS011;52495;52.208;5.158;2022-11-15T08:01:36;35.13;;;19.27;;
65757;SDS011;52495;52.208;5.158;2022-11-15T08:04:22;30.95;;;19.73;;
65757;SDS011;52495;52.208;5.158;2022-11-15T08:07:09;24.85;;;16.85;;
65757;SDS011;52495;52.208;5.158;2022-11-15T08:09:54;31.95;;;19.33;;
65757;SDS011;52495;52.208;5.158;2022-11-15T08:12:39;26.38;;;17.88;;
65757;SDS011;52495;52.208;5.158;2022-11-15T08:15:25;26.95;;;17.77;;
65757;SDS011;52495;52.208;5.158;2022-11-15T08:18:11;33.15;;;18.20;;
65757;SDS011;52495;52.208;5.158;2022-11-15T08:20:58;38.33;;;24.38;;
65757;SDS011;52495;52.208;5.158;2022-11-15T08:23:46;39.38;;;24.92;;
65757;SDS011;52495;52.208;5.158;2022-11-15T08:26:31;30.85;;;23.00;;
65757;SDS011;52495;52.208;5.158;2022-11-15T08:29:16;32.72;;;22.92;;
65757;SDS011;52495;52.208;5.158;2022-11-15T08:32:02;33.63;;;22.35;;
65757;SDS011;52495;52.208;5.158;2022-11-15T08:34:49;30.80;;;20.92;;
65757;SDS011;52495;52.208;5.158;2022-11-15T08:37:34;23.95;;;15.40;;
65757;SDS011;52495;52.208;5.158;2022-11-15T08:40:20;29.15;;;16.23;;
65757;SDS011;52495;52.208;5.158;2022-11-15T08:43:06;30.70;;;17.80;;
65757;SDS011;52495;52.208;5.158;2022-11-15T08:45:51;26.67;;;16.70;;
65757;SDS011;52495;52.208;5.158;2022-11-15T08:48:37;31.27;;;16.65;;
65757;SDS011;52495;52.208;5.158;2022-11-15T08:51:22;25.42;;;14.75;;
65757;SDS011;52495;52.208;5.158;2022-11-15T08:54:07;21.58;;;13.93;;
65757;SDS011;52495;52.208;5.158;2022-11-15T08:56:54;25.73;;;15.93;;
65757;SDS011;52495;52.208;5.158;2022-11-15T08:59:40;24.33;;;14.60;;
65757;SDS011;52495;52.208;5.158;2022-11-15T09:02:25;24.58;;;13.88;;
65757;SDS011;52495;52.208;5.158;2022-11-15T09:05:10;22.38;;;13.82;;
65757;SDS011;52495;52.208;5.158;2022-11-15T09:07:56;21.23;;;14.50;;
65757;SDS011;52495;52.208;5.158;2022-11-15T09:10:41;23.15;;;13.25;;
65757;SDS011;52495;52.208;5.158;2022-11-15T09:13:28;23.65;;;12.07;;
65757;SDS011;52495;52.208;5.158;2022-11-15T09:16:13;12.77;;;8.23;;
65757;SDS011;52495;52.208;5.158;2022-11-15T09:18:58;17.60;;;11.38;;
65757;SDS011;52495;52.208;5.158;2022-11-15T09:21:44;21.15;;;10.73;;
65757;SDS011;52495;52.208;5.158;2022-11-15T09:24:29;14.05;;;8.65;;
65757;SDS011;52495;52.208;5.158;2022-11-15T09:27:15;16.83;;;10.55;;
65757;SDS011;52495;52.208;5.158;2022-11-15T09:30:01;15.13;;;9.45;;
65757;SDS011;52495;52.208;5.158;2022-11-15T09:32:47;15.38;;;10.23;;
65757;SDS011;52495;52.208;5.158;2022-11-15T09:35:32;15.05;;;9.75;;
65757;SDS011;52495;52.208;5.158;2022-11-15T09:38:18;18.15;;;10.20;;
65757;SDS011;52495;52.208;5.158;2022-11-15T09:44:41;11.63;;;9.25;;
65757;SDS011;52495;52.208;5.158;2022-11-15T09:47:37;14.85;;;9.73;;
65757;SDS011;52495;52.208;5.158;2022-11-15T09:50:34;19.20;;;9.02;;
65757;SDS011;52495;52.208;5.158;2022-11-15T09:53:04;15.07;;;8.35;;
65757;SDS011;52495;52.208;5.158;2022-11-15T09:55:34;14.85;;;9.20;;
65757;SDS011;52495;52.208;5.158;2022-11-15T09:58:09;18.50;;;8.43;;
65757;SDS011;52495;52.208;5.158;2022-11-15T10:00:47;10.98;;;7.30;;
65757;SDS011;52495;52.208;5.158;2022-11-15T10:03:20;12.93;;;7.60;;
65757;SDS011;52495;52.208;5.158;2022-11-15T10:05:53;13.13;;;7.25;;
65757;SDS011;52495;52.208;5.158;2022-11-15T10:11:17;14.10;;;6.10;;
65757;SDS011;52495;52.208;5.158;2022-11-15T10:13:47;14.20;;;6.38;;
65757;SDS011;52495;52.208;5.158;2022-11-15T10:16:21;11.93;;;5.85;;
65757;SDS011;52495;52.208;5.158;2022-11-15T10:19:13;10.88;;;6.18;;
65757;SDS011;52495;52.208;5.158;2022-11-15T10:21:48;9.63;;;5.68;;
65757;SDS011;52495;52.208;5.158;2022-11-15T10:24:26;10.57;;;6.00;;
65757;SDS011;52495;52.208;5.158;2022-11-15T10:26:54;10.55;;;5.30;;
65757;SDS011;52495;52.208;5.158;2022-11-15T10:29:24;6.55;;;5.00;;
65757;SDS011;52495;52.208;5.158;2022-11-15T10:31:51;9.45;;;5.43;;
65757;SDS011;52495;52.208;5.158;2022-11-15T10:34:20;9.02;;;6.10;;
65757;SDS011;52495;52.208;5.158;2022-11-15T10:36:54;8.73;;;5.28;;
65757;SDS011;52495;52.208;5.158;2022-11-15T10:39:22;14.98;;;9.23;;
65757;SDS011;52495;52.208;5.158;2022-11-15T10:41:50;10.48;;;6.65;;
65757;SDS011;52495;52.208;5.158;2022-11-15T10:44:24;10.45;;;6.65;;
65757;SDS011;52495;52.208;5.158;2022-11-15T10:49:56;9.43;;;4.88;;
65757;SDS011;52495;52.208;5.158;2022-11-15T10:52:29;11.10;;;5.25;;
65757;SDS011;52495;52.208;5.158;2022-11-15T10:54:58;9.65;;;6.15;;
65757;SDS011;52495;52.208;5.158;2022-11-15T10:57:30;8.03;;;5.70;;
65757;SDS011;52495;52.208;5.158;2022-11-15T11:00:01;12.13;;;5.72;;
65757;SDS011;52495;52.208;5.158;2022-11-15T11:02:31;8.25;;;5.25;;
65757;SDS011;52495;52.208;5.158;2022-11-15T11:05:03;10.40;;;5.03;;
65757;SDS011;52495;52.208;5.158;2022-11-15T11:07:34;11.07;;;5.30;;
65757;SDS011;52495;52.208;5.158;2022-11-15T11:10:03;12.95;;;4.72;;
65757;SDS011;52495;52.208;5.158;2022-11-15T11:12:43;8.18;;;4.40;;
65757;SDS011;52495;52.208;5.158;2022-11-15T11:15:11;5.55;;;3.70;;
65757;SDS011;52495;52.208;5.158;2022-11-15T11:17:49;7.72;;;4.03;;
65757;SDS011;52495;52.208;5.158;2022-11-15T11:20:26;8.00;;;4.00;;
65757;SDS011;52495;52.208;5.158;2022-11-15T11:23:06;5.60;;;3.78;;
65757;SDS011;52495;52.208;5.158;2022-11-15T11:25:48;8.00;;;3.47;;
65757;SDS011;52495;52.208;5.158;2022-11-15T11:28:24;5.25;;;2.97;;
65757;SDS011;52495;52.208;5.158;2022-11-15T11:31:03;6.30;;;2.90;;
65757;SDS011;52495;52.208;5.158;2022-11-15T11:33:41;8.05;;;2.78;;
65757;SDS011;52495;52.208;5.158;2022-11-15T11:36:18;7.07;;;2.95;;
65757;SDS011;52495;52.208;5.158;2022-11-15T11:38:53;5.07;;;3.10;;
65757;SDS011;52495;52.208;5.158;2022-11-15T11:41:37;6.45;;;2.45;;
65757;SDS011;52495;52.208;5.158;2022-11-15T11:44:16;6.13;;;2.38;;
65757;SDS011;52495;52.208;5.158;2022-11-15T11:46:53;5.97;;;2.25;;
65757;SDS011;52495;52.208;5.158;2022-11-15T11:49:25;3.72;;;2.20;;
65757;SDS011;52495;52.208;5.158;2022-11-15T11:52:00;4.65;;;2.03;;
65757;SDS011;52495;52.208;5.158;2022-11-15T11:54:32;5.43;;;2.60;;
65757;SDS011;52495;52.208;5.158;2022-11-15T11:57:07;4.93;;;2.00;;
65757;SDS011;52495;52.208;5.158;2022-11-15T11:59:41;8.57;;;2.13;;
65757;SDS011;52495;52.208;5.158;2022-11-15T12:02:16;3.03;;;1.80;;
65757;SDS011;52495;52.208;5.158;2022-11-15T12:04:48;5.43;;;1.88;;
65757;SDS011;52495;52.208;5.158;2022-11-15T12:07:22;5.13;;;1.75;;
65757;SDS011;52495;52.208;5.158;2022-11-15T12:09:53;6.95;;;1.75;;
65757;SDS011;52495;52.208;5.158;2022-11-15T12:12:27;7.80;;;2.15;;
65757;SDS011;52495;52.208;5.158;2022-11-15T12:14:59;5.80;;;1.80;;
65757;SDS011;52495;52.208;5.158;2022-11-15T12:17:29;5.35;;;1.90;;
65757;SDS011;52495;52.208;5.158;2022-11-15T12:19:57;4.70;;;1.90;;
65757;SDS011;52495;52.208;5.158;2022-11-15T12:22:28;6.07;;;1.90;;
65757;SDS011;52495;52.208;5.158;2022-11-15T12:25:05;8.38;;;1.77;;
65757;SDS011;52495;52.208;5.158;2022-11-15T12:27:41;6.38;;;2.15;;
65757;SDS011;52495;52.208;5.158;2022-11-15T12:30:14;4.97;;;1.42;;
65757;SDS011;52495;52.208;5.158;2022-11-15T12:32:49;4.70;;;1.40;;
65757;SDS011;52495;52.208;5.158;2022-11-15T12:35:23;6.60;;;1.55;;
65757;SDS011;52495;52.208;5.158;2022-11-15T12:37:54;8.35;;;2.22;;
65757;SDS011;52495;52.208;5.158;2022-11-15T12:40:32;3.58;;;1.58;;
65757;SDS011;52495;52.208;5.158;2022-11-15T12:43:02;4.43;;;1.30;;
65757;SDS011;52495;52.208;5.158;2022-11-15T12:45:44;5.43;;;1.67;;
65757;SDS011;52495;52.208;5.158;2022-11-15T12:51:14;5.65;;;1.63;;
65757;SDS011;52495;52.208;5.158;2022-11-15T12:53:42;8.45;;;1.40;;
65757;SDS011;52495;52.208;5.158;2022-11-15T12:56:15;4.20;;;1.23;;
65757;SDS011;52495;52.208;5.158;2022-11-15T12:58:46;5.05;;;1.30;;
65757;SDS011;52495;52.208;5.158;2022-11-15T13:04:22;12.55;;;1.73;;
65757;SDS011;52495;52.208;5.158;2022-11-15T13:06:51;3.53;;;1.30;;
65757;SDS011;52495;52.208;5.158;2022-11-15T13:18:30;4.63;;;1.35;;
65757;SDS011;52495;52.208;5.158;2022-11-15T13:20:59;6.88;;;1.38;;
65757;SDS011;52495;52.208;5.158;2022-11-15T13:23:27;6.30;;;1.50;;
65757;SDS011;52495;52.208;5.158;2022-11-15T13:26:00;4.13;;;1.60;;
65757;SDS011;52495;52.208;5.158;2022-11-15T13:28:36;8.60;;;1.52;;
65757;SDS011;52495;52.208;5.158;2022-11-15T13:31:15;5.50;;;1.60;;
65757;SDS011;52495;52.208;5.158;2022-11-15T13:33:57;5.25;;;1.45;;
65757;SDS011;52495;52.208;5.158;2022-11-15T13:36:27;6.45;;;1.45;;
65757;SDS011;52495;52.208;5.158;2022-11-15T13:38:59;4.60;;;1.13;;
65757;SDS011;52495;52.208;5.158;2022-11-15T13:41:28;4.03;;;1.40;;
65757;SDS011;52495;52.208;5.158;2022-11-15T13:43:58;4.88;;;1.50;;
65757;SDS011;52495;52.208;5.158;2022-11-15T13:46:26;5.15;;;1.55;;
65757;SDS011;52495;52.208;5.158;2022-11-15T13:48:54;8.07;;;1.80;;
65757;SDS011;52495;52.208;5.158;2022-11-15T13:51:28;5.63;;;1.67;;
65757;SDS011;52495;52.208;5.158;2022-11-15T13:54:01;6.60;;;1.58;;
65757;SDS011;52495;52.208;5.158;2022-11-15T13:56:36;6.13;;;1.58;;
65757;SDS011;52495;52.208;5.158;2022-11-15T13:59:08;4.97;;;1.70;;
65757;SDS011;52495;52.208;5.158;2022-11-15T14:01:36;9.55;;;1.90;;
65757;SDS011;52495;52.208;5.158;2022-11-15T14:04:03;4.05;;;1.50;;
65757;SDS011;52495;52.208;5.158;2022-11-15T14:06:30;4.90;;;1.67;;
65757;SDS011;52495;52.208;5.158;2022-11-15T14:09:01;4.40;;;1.80;;
65757;SDS011;52495;52.208;5.158;2022-11-15T14:11:30;7.65;;;2.20;;
65757;SDS011;52495;52.208;5.158;2022-11-15T14:14:10;4.70;;;1.90;;
65757;SDS011;52495;52.208;5.158;2022-11-15T14:16:41;6.05;;;1.90;;
65757;SDS011;52495;52.208;5.158;2022-11-15T14:19:36;5.35;;;1.98;;
65757;SDS011;52495;52.208;5.158;2022-11-15T14:22:23;5.20;;;1.90;;
65757;SDS011;52495;52.208;5.158;2022-11-15T14:25:12;5.30;;;1.65;;
65757;SDS011;52495;52.208;5.158;2022-11-15T14:27:45;6.82;;;1.75;;
65757;SDS011;52495;52.208;5.158;2022-11-15T14:30:42;4.05;;;2.08;;
65757;SDS011;52495;52.208;5.158;2022-11-15T14:33:17;8.00;;;2.20;;
65757;SDS011;52495;52.208;5.158;2022-11-15T14:35:49;6.38;;;1.95;;
65757;SDS011;52495;52.208;5.158;2022-11-15T14:38:16;5.95;;;1.92;;
65757;SDS011;52495;52.208;5.158;2022-11-15T14:40:43;5.07;;;2.10;;
65757;SDS011;52495;52.208;5.158;2022-11-15T14:43:10;6.57;;;2.00;;
65757;SDS011;52495;52.208;5.158;2022-11-15T14:45:38;4.65;;;1.90;;
65757;SDS011;52495;52.208;5.158;2022-11-15T14:48:07;3.33;;;1.50;;
65757;SDS011;52495;52.208;5.158;2022-11-15T14:50:34;6.10;;;1.95;;
65757;SDS011;52495;52.208;5.158;2022-11-15T14:53:02;5.07;;;1.80;;
65757;SDS011;52495;52.208;5.158;2022-11-15T14:55:29;7.90;;;2.08;;
65757;SDS011;52495;52.208;5.158;2022-11-15T14:58:00;5.93;;;2.08;;
65757;SDS011;52495;52.208;5.158;2022-11-15T15:00:28;4.65;;;1.58;;
65757;SDS011;52495;52.208;5.158;2022-11-15T15:02:55;4.18;;;1.65;;
65757;SDS011;52495;52.208;5.158;2022-11-15T15:05:24;6.60;;;1.92;;
65757;SDS011;52495;52.208;5.158;2022-11-15T15:07:53;5.72;;;1.70;;
65757;SDS011;52495;52.208;5.158;2022-11-15T15:10:20;5.43;;;1.92;;
65757;SDS011;52495;52.208;5.158;2022-11-15T15:12:47;7.68;;;1.58;;
65757;SDS011;52495;52.208;5.158;2022-11-15T15:15:16;7.28;;;1.63;;
65757;SDS011;52495;52.208;5.158;2022-11-15T15:17:44;6.03;;;1.63;;
65757;SDS011;52495;52.208;5.158;2022-11-15T15:20:11;4.97;;;1.70;;
65757;SDS011;52495;52.208;5.158;2022-11-15T15:22:39;7.47;;;1.85;;
65757;SDS011;52495;52.208;5.158;2022-11-15T15:25:20;4.75;;;1.48;;
65757;SDS011;52495;52.208;5.158;2022-11-15T15:27:50;3.10;;;1.27;;
65757;SDS011;52495;52.208;5.158;2022-11-15T15:30:17;3.78;;;1.58;;
65757;SDS011;52495;52.208;5.158;2022-11-15T15:32:44;5.15;;;1.70;;
65757;SDS011;52495;52.208;5.158;2022-11-15T15:35:11;2.95;;;1.50;;
65757;SDS011;52495;52.208;5.158;2022-11-15T15:37:41;4.20;;;2.00;;
65757;SDS011;52495;52.208;5.158;2022-11-15T15:40:10;5.25;;;1.50;;
65757;SDS011;52495;52.208;5.158;2022-11-15T15:42:40;3.97;;;1.98;;
65757;SDS011;52495;52.208;5.158;2022-11-15T15:45:08;3.78;;;1.30;;
65757;SDS011;52495;52.208;5.158;2022-11-15T15:47:36;4.50;;;1.52;;
65757;SDS011;52495;52.208;5.158;2022-11-15T15:50:04;3.08;;;1.55;;
65757;SDS011;52495;52.208;5.158;2022-11-15T15:52:42;3.92;;;1.40;;
65757;SDS011;52495;52.208;5.158;2022-11-15T15:55:09;3.30;;;1.40;;
65757;SDS011;52495;52.208;5.158;2022-11-15T15:57:36;2.83;;;1.30;;
65757;SDS011;52495;52.208;5.158;2022-11-15T16:00:03;4.72;;;1.40;;
65757;SDS011;52495;52.208;5.158;2022-11-15T16:02:37;4.50;;;1.50;;
65757;SDS011;52495;52.208;5.158;2022-11-15T16:05:04;4.05;;;1.33;;
65757;SDS011;52495;52.208;5.158;2022-11-15T16:07:31;6.22;;;2.03;;
65757;SDS011;52495;52.208;5.158;2022-11-15T16:10:00;38.13;;;24.83;;
65757;SDS011;52495;52.208;5.158;2022-11-15T16:12:27;14.77;;;7.80;;
65757;SDS011;52495;52.208;5.158;2022-11-15T16:14:53;29.27;;;11.60;;
65757;SDS011;52495;52.208;5.158;2022-11-15T16:17:21;10.80;;;5.18;;